sensor_id;sensor_type;location;lat;lon;timestamp;pressure;altitude;pressure_sealevel;temperature
15144;BMP180;7672;50.834;6.286;2022-12-18T00:03:55;100821.91;;;-1.91
15144;BMP180;7672;50.834;6.286;2022-12-18T00:06:24;100819.31;;;-1.93
15144;BMP180;7672;50.834;6.286;2022-12-18T00:08:51;100817.59;;;-1.94
15144;BMP180;7672;50.834;6.286;2022-12-18T00:11:22;100814.38;;;-1.93
15144;BMP180;7672;50.834;6.286;2022-12-18T00:13:51;100811.78;;;-1.94
15144;BMP180;7672;50.834;6.286;2022-12-18T00:16:21;100820.91;;;-1.93
15144;BMP180;7672;50.834;6.286;2022-12-18T00:18:53;100819.09;;;-1.96
15144;BMP180;7672;50.834;6.286;2022-12-18T00:21:21;100824.03;;;-1.96
15144;BMP180;7672;50.834;6.286;2022-12-18T00:23:49;100819.97;;;-1.95
15144;BMP180;7672;50.834;6.286;2022-12-18T00:26:21;100818.25;;;-1.96
15144;BMP180;7672;50.834;6.286;2022-12-18T00:28:49;100823.19;;;-1.96
15144;BMP180;7672;50.834;6.286;2022-12-18T00:31:21;100825.56;;;-1.98
15144;BMP180;7672;50.834;6.286;2022-12-18T00:33:48;100833.75;;;-1.99
15144;BMP180;7672;50.834;6.286;2022-12-18T00:36:29;100831.16;;;-2.00
15144;BMP180;7672;50.834;6.286;2022-12-18T00:38:58;100828.59;;;-2.02
15144;BMP180;7672;50.834;6.286;2022-12-18T00:41:26;100816.22;;;-2.02
15144;BMP180;7672;50.834;6.286;2022-12-18T00:44:15;100820.19;;;-2.04
15144;BMP180;7672;50.834;6.286;2022-12-18T00:46:44;100814.28;;;-2.06
15144;BMP180;7672;50.834;6.286;2022-12-18T00:49:11;100820.06;;;-2.05
15144;BMP180;7672;50.834;6.286;2022-12-18T00:51:38;100821.56;;;-2.07
15144;BMP180;7672;50.834;6.286;2022-12-18T00:54:05;100818.34;;;-2.06
15144;BMP180;7672;50.834;6.286;2022-12-18T00:56:32;100813.38;;;-2.06
15144;BMP180;7672;50.834;6.286;2022-12-18T00:58:58;100824.94;;;-2.07
15144;BMP180;7672;50.834;6.286;2022-12-18T01:01:25;100815.66;;;-2.09
15144;BMP180;7672;50.834;6.286;2022-12-18T01:03:52;100808.97;;;-2.10
15144;BMP180;7672;50.834;6.286;2022-12-18T01:06:19;100803.94;;;-2.12
15144;BMP180;7672;50.834;6.286;2022-12-18T01:08:46;100812.22;;;-2.11
15144;BMP180;7672;50.834;6.286;2022-12-18T01:11:17;100816.41;;;-2.10
15144;BMP180;7672;50.834;6.286;2022-12-18T01:13:44;100805.53;;;-2.12
15144;BMP180;7672;50.834;6.286;2022-12-18T01:16:13;100811.34;;;-2.12
15144;BMP180;7672;50.834;6.286;2022-12-18T01:18:41;100808.78;;;-2.13
15144;BMP180;7672;50.834;6.286;2022-12-18T01:21:11;100810.28;;;-2.15
15144;BMP180;7672;50.834;6.286;2022-12-18T01:23:38;100809.31;;;-2.17
15144;BMP180;7672;50.834;6.286;2022-12-18T01:26:15;100801.88;;;-2.17
15144;BMP180;7672;50.834;6.286;2022-12-18T01:28:43;100796.81;;;-2.19
15144;BMP180;7672;50.834;6.286;2022-12-18T01:31:13;100806.59;;;-2.20
15144;BMP180;7672;50.834;6.286;2022-12-18T01:33:40;100812.44;;;-2.20
15144;BMP180;7672;50.834;6.286;2022-12-18T01:36:13;100806.59;;;-2.20
15144;BMP180;7672;50.834;6.286;2022-12-18T01:38:40;100801.75;;;-2.19
15144;BMP180;7672;50.834;6.286;2022-12-18T01:41:08;100803.47;;;-2.18
15144;BMP180;7672;50.834;6.286;2022-12-18T01:43:53;100801.88;;;-2.17
15144;BMP180;7672;50.834;6.286;2022-12-18T01:46:23;100800.25;;;-2.17
15144;BMP180;7672;50.834;6.286;2022-12-18T01:48:57;100802.84;;;-2.15
15144;BMP180;7672;50.834;6.286;2022-12-18T01:51:29;100806.19;;;-2.15
15144;BMP180;7672;50.834;6.286;2022-12-18T01:53:57;100803.81;;;-2.13
15144;BMP180;7672;50.834;6.286;2022-12-18T01:56:24;100813.28;;;-2.08
15144;BMP180;7672;50.834;6.286;2022-12-18T01:59:00;100814.38;;;-2.04
15144;BMP180;7672;50.834;6.286;2022-12-18T02:01:30;100804.47;;;-2.04
15144;BMP180;7672;50.834;6.286;2022-12-18T02:04:24;100811.34;;;-2.00
15144;BMP180;7672;50.834;6.286;2022-12-18T02:12:28;100803.56;;;-1.93
15144;BMP180;7672;50.834;6.286;2022-12-18T02:15:28;100806.28;;;-1.90
15144;BMP180;7672;50.834;6.286;2022-12-18T02:18:32;100790.44;;;-1.92
15144;BMP180;7672;50.834;6.286;2022-12-18T02:27:19;100791.53;;;-2.00
15144;BMP180;7672;50.834;6.286;2022-12-18T02:29:55;100790.78;;;-1.99
15144;BMP180;7672;50.834;6.286;2022-12-18T02:32:30;100789.06;;;-2.00
15144;BMP180;7672;50.834;6.286;2022-12-18T02:34:59;100780.00;;;-2.00
15144;BMP180;7672;50.834;6.286;2022-12-18T02:37:29;100778.41;;;-1.99
15144;BMP180;7672;50.834;6.286;2022-12-18T02:39:58;100770.09;;;-2.00
15144;BMP180;7672;50.834;6.286;2022-12-18T02:42:27;100771.72;;;-2.00
15144;BMP180;7672;50.834;6.286;2022-12-18T02:44:54;100783.13;;;-2.02
15144;BMP180;7672;50.834;6.286;2022-12-18T02:47:26;100785.50;;;-2.04
15144;BMP180;7672;50.834;6.286;2022-12-18T02:50:22;100788.63;;;-2.06
15144;BMP180;7672;50.834;6.286;2022-12-18T02:53:22;100780.88;;;-2.11
15144;BMP180;7672;50.834;6.286;2022-12-18T02:56:09;100782.19;;;-2.16
15144;BMP180;7672;50.834;6.286;2022-12-18T02:59:05;100783.38;;;-2.22
15144;BMP180;7672;50.834;6.286;2022-12-18T03:01:50;100782.28;;;-2.26
15144;BMP180;7672;50.834;6.286;2022-12-18T03:06:57;100779.91;;;-2.36
15144;BMP180;7672;50.834;6.286;2022-12-18T03:09:35;100771.19;;;-2.42
15144;BMP180;7672;50.834;6.286;2022-12-18T03:12:15;100771.09;;;-2.44
15144;BMP180;7672;50.834;6.286;2022-12-18T03:15:19;100770.63;;;-2.49
15144;BMP180;7672;50.834;6.286;2022-12-18T03:17:58;100769.97;;;-2.58
15144;BMP180;7672;50.834;6.286;2022-12-18T03:20:29;100763.84;;;-2.63
15144;BMP180;7672;50.834;6.286;2022-12-18T03:23:09;100769.22;;;-2.69
15144;BMP180;7672;50.834;6.286;2022-12-18T03:25:42;100754.13;;;-2.72
15144;BMP180;7672;50.834;6.286;2022-12-18T03:28:16;100766.28;;;-2.75
15144;BMP180;7672;50.834;6.286;2022-12-18T03:30:47;100752.09;;;-2.77
15144;BMP180;7672;50.834;6.286;2022-12-18T03:33:29;100750.25;;;-2.80
15144;BMP180;7672;50.834;6.286;2022-12-18T03:35:58;100746.81;;;-2.82
15144;BMP180;7672;50.834;6.286;2022-12-18T03:38:25;100756.47;;;-2.85
15144;BMP180;7672;50.834;6.286;2022-12-18T03:44:50;100748.97;;;-2.86
15144;BMP180;7672;50.834;6.286;2022-12-18T03:47:29;100751.22;;;-2.89
15144;BMP180;7672;50.834;6.286;2022-12-18T03:52:47;100750.78;;;-2.84
15144;BMP180;7672;50.834;6.286;2022-12-18T03:55:19;100750.91;;;-2.82
15144;BMP180;7672;50.834;6.286;2022-12-18T03:57:48;100748.53;;;-2.81
15144;BMP180;7672;50.834;6.286;2022-12-18T04:00:18;100737.88;;;-2.80
15144;BMP180;7672;50.834;6.286;2022-12-18T04:02:55;100747.25;;;-2.76
15144;BMP180;7672;50.834;6.286;2022-12-18T04:05:25;100736.81;;;-2.72
15144;BMP180;7672;50.834;6.286;2022-12-18T04:07:54;100734.47;;;-2.70
15144;BMP180;7672;50.834;6.286;2022-12-18T04:10:22;100726.28;;;-2.69
15144;BMP180;7672;50.834;6.286;2022-12-18T04:12:49;100726.28;;;-2.69
15144;BMP180;7672;50.834;6.286;2022-12-18T04:15:16;100727.25;;;-2.67
15144;BMP180;7672;50.834;6.286;2022-12-18T04:17:48;100727.25;;;-2.67
15144;BMP180;7672;50.834;6.286;2022-12-18T04:20:16;100725.53;;;-2.68
15144;BMP180;7672;50.834;6.286;2022-12-18T04:22:43;100725.44;;;-2.70
15144;BMP180;7672;50.834;6.286;2022-12-18T04:25:11;100724.69;;;-2.69
15144;BMP180;7672;50.834;6.286;2022-12-18T04:27:38;100723.81;;;-2.69
15144;BMP180;7672;50.834;6.286;2022-12-18T04:30:06;100720.47;;;-2.70
15144;BMP180;7672;50.834;6.286;2022-12-18T04:32:34;100725.31;;;-2.71
15144;BMP180;7672;50.834;6.286;2022-12-18T04:35:01;100717.03;;;-2.72
15144;BMP180;7672;50.834;6.286;2022-12-18T04:37:30;100707.75;;;-2.74
15144;BMP180;7672;50.834;6.286;2022-12-18T04:39:57;100709.28;;;-2.76
15144;BMP180;7672;50.834;6.286;2022-12-18T04:42:24;100702.59;;;-2.77
15144;BMP180;7672;50.834;6.286;2022-12-18T04:44:50;100702.50;;;-2.79
15144;BMP180;7672;50.834;6.286;2022-12-18T04:47:17;100694.09;;;-2.81
15144;BMP180;7672;50.834;6.286;2022-12-18T04:49:44;100697.44;;;-2.80
15144;BMP180;7672;50.834;6.286;2022-12-18T04:52:11;100697.44;;;-2.80
15144;BMP180;7672;50.834;6.286;2022-12-18T04:54:37;100694.09;;;-2.81
15144;BMP180;7672;50.834;6.286;2022-12-18T04:57:04;100699.28;;;-2.78
15144;BMP180;7672;50.834;6.286;2022-12-18T04:59:31;100692.50;;;-2.80
15144;BMP180;7672;50.834;6.286;2022-12-18T05:01:57;100699.16;;;-2.79
15144;BMP180;7672;50.834;6.286;2022-12-18T05:04:24;100704.97;;;-2.79
15144;BMP180;7672;50.834;6.286;2022-12-18T05:06:51;100712.41;;;-2.79
15144;BMP180;7672;50.834;6.286;2022-12-18T05:09:18;100711.66;;;-2.78
15144;BMP180;7672;50.834;6.286;2022-12-18T05:11:45;100715.81;;;-2.77
15144;BMP180;7672;50.834;6.286;2022-12-18T05:14:13;100722.59;;;-2.74
15144;BMP180;7672;50.834;6.286;2022-12-18T05:16:40;100731.13;;;-2.71
15144;BMP180;7672;50.834;6.286;2022-12-18T05:19:07;100741.75;;;-2.72
15144;BMP180;7672;50.834;6.286;2022-12-18T05:21:33;100739.44;;;-2.70
15144;BMP180;7672;50.834;6.286;2022-12-18T05:24:00;100744.38;;;-2.70
15144;BMP180;7672;50.834;6.286;2022-12-18T05:26:27;100747.91;;;-2.67
15144;BMP180;7672;50.834;6.286;2022-12-18T05:28:54;100742.22;;;-2.66
15144;BMP180;7672;50.834;6.286;2022-12-18T05:31:20;100749.53;;;-2.67
15144;BMP180;7672;50.834;6.286;2022-12-18T05:33:47;100751.25;;;-2.66
15144;BMP180;7672;50.834;6.286;2022-12-18T05:36:14;100745.31;;;-2.68
15144;BMP180;7672;50.834;6.286;2022-12-18T05:38:41;100727.91;;;-2.70
15144;BMP180;7672;50.834;6.286;2022-12-18T05:41:09;100737.69;;;-2.71
15144;BMP180;7672;50.834;6.286;2022-12-18T05:43:38;100745.22;;;-2.70
15144;BMP180;7672;50.834;6.286;2022-12-18T05:46:11;100748.69;;;-2.68
15144;BMP180;7672;50.834;6.286;2022-12-18T05:48:38;100752.84;;;-2.67
15144;BMP180;7672;50.834;6.286;2022-12-18T05:51:09;100746.63;;;-2.62
15144;BMP180;7672;50.834;6.286;2022-12-18T05:53:36;100744.59;;;-2.56
15144;BMP180;7672;50.834;6.286;2022-12-18T05:56:08;100740.72;;;-2.52
15144;BMP180;7672;50.834;6.286;2022-12-18T05:58:38;100742.41;;;-2.51
15144;BMP180;7672;50.834;6.286;2022-12-18T06:01:13;100737.59;;;-2.50
15144;BMP180;7672;50.834;6.286;2022-12-18T06:03:46;100726.72;;;-2.52
15144;BMP180;7672;50.834;6.286;2022-12-18T06:06:23;100728.47;;;-2.51
15144;BMP180;7672;50.834;6.286;2022-12-18T06:08:53;100724.16;;;-2.53
15144;BMP180;7672;50.834;6.286;2022-12-18T06:11:28;100725.44;;;-2.58
15144;BMP180;7672;50.834;6.286;2022-12-18T06:13:57;100726.63;;;-2.65
15144;BMP180;7672;50.834;6.286;2022-12-18T06:16:30;100736.41;;;-2.66
15144;BMP180;7672;50.834;6.286;2022-12-18T06:19:03;100729.53;;;-2.70
15144;BMP180;7672;50.834;6.286;2022-12-18T06:21:31;100713.59;;;-2.74
15144;BMP180;7672;50.834;6.286;2022-12-18T06:24:00;100723.81;;;-2.69
15144;BMP180;7672;50.834;6.286;2022-12-18T06:26:52;100720.59;;;-2.68
15144;BMP180;7672;50.834;6.286;2022-12-18T06:29:22;100713.34;;;-2.77
15144;BMP180;7672;50.834;6.286;2022-12-18T06:31:49;100721.22;;;-2.82
15144;BMP180;7672;50.834;6.286;2022-12-18T06:34:15;100713.22;;;-2.90
15144;BMP180;7672;50.834;6.286;2022-12-18T06:36:45;100729.59;;;-2.92
15144;BMP180;7672;50.834;6.286;2022-12-18T06:39:12;100721.09;;;-2.95
15144;BMP180;7672;50.834;6.286;2022-12-18T06:41:39;100716.78;;;-2.98
15144;BMP180;7672;50.834;6.286;2022-12-18T06:44:05;100724.50;;;-2.93
15144;BMP180;7672;50.834;6.286;2022-12-18T06:46:33;100728.63;;;-2.94
15144;BMP180;7672;50.834;6.286;2022-12-18T06:49:00;100734.75;;;-2.89
15144;BMP180;7672;50.834;6.286;2022-12-18T06:51:28;100733.28;;;-2.87
15144;BMP180;7672;50.834;6.286;2022-12-18T06:53:55;100731.63;;;-2.86
15144;BMP180;7672;50.834;6.286;2022-12-18T06:56:22;100740.25;;;-2.81
15144;BMP180;7672;50.834;6.286;2022-12-18T06:58:48;100747.03;;;-2.79
15144;BMP180;7672;50.834;6.286;2022-12-18T07:01:15;100742.94;;;-2.78
15144;BMP180;7672;50.834;6.286;2022-12-18T07:03:45;100743.50;;;-2.71
15144;BMP180;7672;50.834;6.286;2022-12-18T07:06:19;100743.50;;;-2.71
15144;BMP180;7672;50.834;6.286;2022-12-18T07:08:48;100736.16;;;-2.69
15144;BMP180;7672;50.834;6.286;2022-12-18T07:11:16;100737.91;;;-2.68
15144;BMP180;7672;50.834;6.286;2022-12-18T07:13:43;100726.91;;;-2.72
15144;BMP180;7672;50.834;6.286;2022-12-18T07:28:17;100717.94;;;-3.04
15144;BMP180;7672;50.834;6.286;2022-12-18T07:32:40;100729.44;;;-3.05
15144;BMP180;7672;50.834;6.286;2022-12-18T07:48:47;100682.91;;;-2.99
15144;BMP180;7672;50.834;6.286;2022-12-18T07:56:43;100664.94;;;-2.96
15144;BMP180;7672;50.834;6.286;2022-12-18T08:10:53;100652.47;;;-2.86
15144;BMP180;7672;50.834;6.286;2022-12-18T08:19:26;100646.78;;;-2.62
15144;BMP180;7672;50.834;6.286;2022-12-18T08:22:58;100636.78;;;-2.52
15144;BMP180;7672;50.834;6.286;2022-12-18T08:28:50;100631.31;;;-2.24
15144;BMP180;7672;50.834;6.286;2022-12-18T08:31:30;100619.47;;;-2.17
15144;BMP180;7672;50.834;6.286;2022-12-18T08:34:19;100628.69;;;-2.03
15144;BMP180;7672;50.834;6.286;2022-12-18T08:36:53;100632.94;;;-1.89
15144;BMP180;7672;50.834;6.286;2022-12-18T08:39:31;100644.75;;;-1.74
15144;BMP180;7672;50.834;6.286;2022-12-18T08:46:38;100635.66;;;-0.99
15144;BMP180;7672;50.834;6.286;2022-12-18T09:23:32;100592.97;;;2.85
15144;BMP180;7672;50.834;6.286;2022-12-18T09:54:26;100563.78;;;2.02
15144;BMP180;7672;50.834;6.286;2022-12-18T09:57:23;100553.53;;;1.96
15144;BMP180;7672;50.834;6.286;2022-12-18T10:20:13;100547.97;;;2.84
15144;BMP180;7672;50.834;6.286;2022-12-18T10:23:16;100545.25;;;2.97
15144;BMP180;7672;50.834;6.286;2022-12-18T10:26:08;100537.41;;;3.06
15144;BMP180;7672;50.834;6.286;2022-12-18T10:28:39;100545.53;;;3.20
15144;BMP180;7672;50.834;6.286;2022-12-18T10:31:19;100528.72;;;3.35
15144;BMP180;7672;50.834;6.286;2022-12-18T10:33:50;100530.16;;;3.47
15144;BMP180;7672;50.834;6.286;2022-12-18T10:36:17;100528.94;;;3.57
15144;BMP180;7672;50.834;6.286;2022-12-18T10:38:44;100534.16;;;3.63
15144;BMP180;7672;50.834;6.286;2022-12-18T10:44:16;100540.53;;;3.56
15144;BMP180;7672;50.834;6.286;2022-12-18T10:46:53;100536.97;;;3.51
15144;BMP180;7672;50.834;6.286;2022-12-18T10:49:29;100549.34;;;3.48
15144;BMP180;7672;50.834;6.286;2022-12-18T10:52:21;100537.63;;;3.47
15144;BMP180;7672;50.834;6.286;2022-12-18T10:54:57;100532.56;;;3.46
15144;BMP180;7672;50.834;6.286;2022-12-18T10:57:36;100536.00;;;3.48
15144;BMP180;7672;50.834;6.286;2022-12-18T11:00:29;100527.84;;;3.52
15144;BMP180;7672;50.834;6.286;2022-12-18T11:02:57;100537.91;;;3.53
15144;BMP180;7672;50.834;6.286;2022-12-18T11:05:32;100534.72;;;3.56
15144;BMP180;7672;50.834;6.286;2022-12-18T11:08:01;100528.78;;;3.54
15144;BMP180;7672;50.834;6.286;2022-12-18T11:10:33;100518.72;;;3.52
15144;BMP180;7672;50.834;6.286;2022-12-18T11:13:19;100521.03;;;3.48
15144;BMP180;7672;50.834;6.286;2022-12-18T11:15:47;100514.09;;;3.42
15144;BMP180;7672;50.834;6.286;2022-12-18T11:21:07;100513.03;;;3.37
15144;BMP180;7672;50.834;6.286;2022-12-18T11:23:36;100499.56;;;3.34
15144;BMP180;7672;50.834;6.286;2022-12-18T11:26:04;100502.06;;;3.34
15144;BMP180;7672;50.834;6.286;2022-12-18T11:28:40;100503.69;;;3.33
15144;BMP180;7672;50.834;6.286;2022-12-18T11:31:27;100503.50;;;3.29
15144;BMP180;7672;50.834;6.286;2022-12-18T11:34:01;100504.16;;;3.25
15144;BMP180;7672;50.834;6.286;2022-12-18T11:36:49;100490.53;;;3.18
15144;BMP180;7672;50.834;6.286;2022-12-18T11:39:40;100488.81;;;3.17
15144;BMP180;7672;50.834;6.286;2022-12-18T11:42:20;100461.09;;;3.13
15144;BMP180;7672;50.834;6.286;2022-12-18T11:44:58;100464.38;;;3.12
15144;BMP180;7672;50.834;6.286;2022-12-18T11:50:50;100466.03;;;3.11
15144;BMP180;7672;50.834;6.286;2022-12-18T11:53:18;100469.38;;;3.12
15144;BMP180;7672;50.834;6.286;2022-12-18T11:58:55;100471.16;;;3.14
15144;BMP180;7672;50.834;6.286;2022-12-18T12:05:23;100462.88;;;3.15
15144;BMP180;7672;50.834;6.286;2022-12-18T12:08:23;100460.47;;;3.17
15144;BMP180;7672;50.834;6.286;2022-12-18T12:14:06;100463.06;;;3.18
15144;BMP180;7672;50.834;6.286;2022-12-18T12:19:36;100444.69;;;3.18
15144;BMP180;7672;50.834;6.286;2022-12-18T12:22:27;100443.06;;;3.18
15144;BMP180;7672;50.834;6.286;2022-12-18T12:25:49;100449.97;;;3.24
15144;BMP180;7672;50.834;6.286;2022-12-18T12:29:14;100450.03;;;3.25
15144;BMP180;7672;50.834;6.286;2022-12-18T12:32:10;100449.03;;;3.22
15144;BMP180;7672;50.834;6.286;2022-12-18T12:35:22;100442.53;;;3.25
15144;BMP180;7672;50.834;6.286;2022-12-18T12:38:10;100435.09;;;3.27
15144;BMP180;7672;50.834;6.286;2022-12-18T12:40:49;100440.38;;;3.33
15144;BMP180;7672;50.834;6.286;2022-12-18T12:43:43;100443.88;;;3.36
15144;BMP180;7672;50.834;6.286;2022-12-18T12:46:19;100433.06;;;3.37
15144;BMP180;7672;50.834;6.286;2022-12-18T12:48:56;100420.78;;;3.42
15144;BMP180;7672;50.834;6.286;2022-12-18T12:51:34;100411.84;;;3.47
15144;BMP180;7672;50.834;6.286;2022-12-18T12:54:05;100406.13;;;3.49
15144;BMP180;7672;50.834;6.286;2022-12-18T12:56:48;100408.72;;;3.52
15144;BMP180;7672;50.834;6.286;2022-12-18T12:59:55;100394.69;;;3.54
15144;BMP180;7672;50.834;6.286;2022-12-18T13:05:54;100397.97;;;3.53
15144;BMP180;7672;50.834;6.286;2022-12-18T13:08:31;100394.53;;;3.51
15144;BMP180;7672;50.834;6.286;2022-12-18T13:11:02;100395.47;;;3.53
15144;BMP180;7672;50.834;6.286;2022-12-18T13:13:54;100388.91;;;3.55
15144;BMP180;7672;50.834;6.286;2022-12-18T13:16:26;100385.66;;;3.58
15144;BMP180;7672;50.834;6.286;2022-12-18T13:18:58;100381.63;;;3.61
15144;BMP180;7672;50.834;6.286;2022-12-18T13:21:30;100382.56;;;3.63
15144;BMP180;7672;50.834;6.286;2022-12-18T13:24:28;100371.69;;;3.63
15144;BMP180;7672;50.834;6.286;2022-12-18T13:26:57;100364.84;;;3.59
15144;BMP180;7672;50.834;6.286;2022-12-18T13:29:44;100363.22;;;3.59
15144;BMP180;7672;50.834;6.286;2022-12-18T13:32:25;100364.75;;;3.56
15144;BMP180;7672;50.834;6.286;2022-12-18T13:37:54;100365.94;;;3.45
15144;BMP180;7672;50.834;6.286;2022-12-18T13:49:04;100349.16;;;3.23
15144;BMP180;7672;50.834;6.286;2022-12-18T13:51:34;100337.34;;;3.19
15144;BMP180;7672;50.834;6.286;2022-12-18T13:54:30;100342.34;;;3.19
15144;BMP180;7672;50.834;6.286;2022-12-18T13:56:59;100343.94;;;3.17
15144;BMP180;7672;50.834;6.286;2022-12-18T13:59:39;100344.78;;;3.18
15144;BMP180;7672;50.834;6.286;2022-12-18T14:02:21;100346.38;;;3.16
15144;BMP180;7672;50.834;6.286;2022-12-18T14:04:50;100335.50;;;3.15
15144;BMP180;7672;50.834;6.286;2022-12-18T14:07:26;100333.94;;;3.17
15144;BMP180;7672;50.834;6.286;2022-12-18T14:10:01;100324.84;;;3.19
15144;BMP180;7672;50.834;6.286;2022-12-18T14:12:50;100324.91;;;3.21
15144;BMP180;7672;50.834;6.286;2022-12-18T14:17:58;100322.41;;;3.21
15144;BMP180;7672;50.834;6.286;2022-12-18T14:20:32;100319.84;;;3.19
15144;BMP180;7672;50.834;6.286;2022-12-18T14:22:59;100320.66;;;3.18
15144;BMP180;7672;50.834;6.286;2022-12-18T14:25:29;100307.38;;;3.19
15144;BMP180;7672;50.834;6.286;2022-12-18T14:28:14;100320.66;;;3.18
15144;BMP180;7672;50.834;6.286;2022-12-18T14:30:44;100302.97;;;3.14
15144;BMP180;7672;50.834;6.286;2022-12-18T14:33:22;100303.69;;;3.11
15144;BMP180;7672;50.834;6.286;2022-12-18T14:36:03;100305.19;;;3.08
15144;BMP180;7672;50.834;6.286;2022-12-18T14:38:35;100309.16;;;3.03
15144;BMP180;7672;50.834;6.286;2022-12-18T14:41:13;100309.16;;;3.03
15144;BMP180;7672;50.834;6.286;2022-12-18T14:43:43;100303.31;;;3.03
15144;BMP180;7672;50.834;6.286;2022-12-18T14:46:45;100315.13;;;3.06
15144;BMP180;7672;50.834;6.286;2022-12-18T14:51:55;100317.56;;;3.05
15144;BMP180;7672;50.834;6.286;2022-12-18T14:54:25;100308.63;;;3.10
15144;BMP180;7672;50.834;6.286;2022-12-18T14:57:13;100305.41;;;3.12
15144;BMP180;7672;50.834;6.286;2022-12-18T14:59:45;100302.84;;;3.11
15144;BMP180;7672;50.834;6.286;2022-12-18T15:02:27;100312.75;;;3.09
15144;BMP180;7672;50.834;6.286;2022-12-18T15:05:29;100320.25;;;3.09
15144;BMP180;7672;50.834;6.286;2022-12-18T15:07:59;100320.34;;;3.11
15144;BMP180;7672;50.834;6.286;2022-12-18T15:10:30;100327.88;;;3.12
15144;BMP180;7672;50.834;6.286;2022-12-18T15:18:31;100328.94;;;3.17
15144;BMP180;7672;50.834;6.286;2022-12-18T15:21:07;100340.66;;;3.18
15144;BMP180;7672;50.834;6.286;2022-12-18T15:23:48;100332.34;;;3.19
15144;BMP180;7672;50.834;6.286;2022-12-18T15:26:20;100334.06;;;3.20
15144;BMP180;7672;50.834;6.286;2022-12-18T15:28:53;100324.06;;;3.20
15144;BMP180;7672;50.834;6.286;2022-12-18T15:31:35;100331.50;;;3.19
15144;BMP180;7672;50.834;6.286;2022-12-18T15:36:34;100333.94;;;3.17
15144;BMP180;7672;50.834;6.286;2022-12-18T15:39:05;100330.66;;;3.18
15144;BMP180;7672;50.834;6.286;2022-12-18T15:41:35;100320.66;;;3.18
15144;BMP180;7672;50.834;6.286;2022-12-18T15:44:15;100319.78;;;3.18
15144;BMP180;7672;50.834;6.286;2022-12-18T15:46:47;100310.47;;;3.14
15144;BMP180;7672;50.834;6.286;2022-12-18T15:49:14;100310.25;;;3.09
15144;BMP180;7672;50.834;6.286;2022-12-18T15:51:41;100310.25;;;3.09
15144;BMP180;7672;50.834;6.286;2022-12-18T15:54:14;100310.19;;;3.08
15144;BMP180;7672;50.834;6.286;2022-12-18T15:56:42;100303.56;;;3.08
15144;BMP180;7672;50.834;6.286;2022-12-18T15:59:28;100297.59;;;3.05
15144;BMP180;7672;50.834;6.286;2022-12-18T16:01:56;100288.44;;;3.05
15144;BMP180;7672;50.834;6.286;2022-12-18T16:04:23;100286.81;;;3.06
15144;BMP180;7672;50.834;6.286;2022-12-18T16:06:51;100290.28;;;3.09
15144;BMP180;7672;50.834;6.286;2022-12-18T16:09:38;100288.72;;;3.11
15144;BMP180;7672;50.834;6.286;2022-12-18T16:12:08;100289.72;;;3.15
15144;BMP180;7672;50.834;6.286;2022-12-18T16:14:40;100291.41;;;3.16
15144;BMP180;7672;50.834;6.286;2022-12-18T16:17:11;100295.69;;;3.18
15144;BMP180;7672;50.834;6.286;2022-12-18T16:19:39;100295.75;;;3.20
15144;BMP180;7672;50.834;6.286;2022-12-18T16:22:08;100310.78;;;3.21
15144;BMP180;7672;50.834;6.286;2022-12-18T16:24:39;100297.44;;;3.21
15144;BMP180;7672;50.834;6.286;2022-12-18T16:27:05;100289.22;;;3.23
15144;BMP180;7672;50.834;6.286;2022-12-18T16:29:32;100298.41;;;3.24
15144;BMP180;7672;50.834;6.286;2022-12-18T16:32:00;100291.84;;;3.26
15144;BMP180;7672;50.834;6.286;2022-12-18T16:34:33;100291.91;;;3.28
15144;BMP180;7672;50.834;6.286;2022-12-18T16:37:05;100292.75;;;3.28
15144;BMP180;7672;50.834;6.286;2022-12-18T16:39:33;100295.19;;;3.27
15144;BMP180;7672;50.834;6.286;2022-12-18T16:42:17;100296.84;;;3.26
15144;BMP180;7672;50.834;6.286;2022-12-18T16:44:47;100285.03;;;3.22
15144;BMP180;7672;50.834;6.286;2022-12-18T16:47:15;100287.38;;;3.19
15144;BMP180;7672;50.834;6.286;2022-12-18T16:49:44;100282.16;;;3.13
15144;BMP180;7672;50.834;6.286;2022-12-18T16:52:12;100283.72;;;3.11
15144;BMP180;7672;50.834;6.286;2022-12-18T16:54:39;100282.78;;;3.09
15144;BMP180;7672;50.834;6.286;2022-12-18T16:57:06;100276.88;;;3.07
15144;BMP180;7672;50.834;6.286;2022-12-18T16:59:33;100291.88;;;3.07
15144;BMP180;7672;50.834;6.286;2022-12-18T17:01:59;100283.44;;;3.05
15144;BMP180;7672;50.834;6.286;2022-12-18T17:04:27;100298.44;;;3.05
15144;BMP180;7672;50.834;6.286;2022-12-18T17:06:54;100294.38;;;3.07
15144;BMP180;7672;50.834;6.286;2022-12-18T17:09:21;100297.78;;;3.09
15144;BMP180;7672;50.834;6.286;2022-12-18T17:11:52;100294.53;;;3.12
15144;BMP180;7672;50.834;6.286;2022-12-18T17:14:23;100297.97;;;3.14
15144;BMP180;7672;50.834;6.286;2022-12-18T17:16:51;100290.53;;;3.15
15144;BMP180;7672;50.834;6.286;2022-12-18T17:19:39;100296.25;;;3.13
15144;BMP180;7672;50.834;6.286;2022-12-18T17:22:05;100296.22;;;3.11
15144;BMP180;7672;50.834;6.286;2022-12-18T17:24:34;100280.38;;;3.11
15144;BMP180;7672;50.834;6.286;2022-12-18T17:27:02;100288.59;;;3.08
15144;BMP180;7672;50.834;6.286;2022-12-18T17:29:29;100278.53;;;3.07
15144;BMP180;7672;50.834;6.286;2022-12-18T17:31:56;100282.72;;;3.08
15144;BMP180;7672;50.834;6.286;2022-12-18T17:34:26;100278.59;;;3.08
15144;BMP180;7672;50.834;6.286;2022-12-18T17:36:53;100282.78;;;3.09
15144;BMP180;7672;50.834;6.286;2022-12-18T17:39:21;100285.44;;;3.12
15144;BMP180;7672;50.834;6.286;2022-12-18T17:41:48;100285.56;;;3.15
15144;BMP180;7672;50.834;6.286;2022-12-18T17:44:16;100289.88;;;3.19
15144;BMP180;7672;50.834;6.286;2022-12-18T17:46:43;100287.59;;;3.24
15144;BMP180;7672;50.834;6.286;2022-12-18T17:49:12;100287.75;;;3.28
15144;BMP180;7672;50.834;6.286;2022-12-18T17:51:39;100280.47;;;3.33
15144;BMP180;7672;50.834;6.286;2022-12-18T17:54:09;100285.59;;;3.36
15144;BMP180;7672;50.834;6.286;2022-12-18T17:56:38;100296.50;;;3.38
15144;BMP180;7672;50.834;6.286;2022-12-18T17:59:05;100278.97;;;3.36
15144;BMP180;7672;50.834;6.286;2022-12-18T18:01:33;100281.47;;;3.36
15144;BMP180;7672;50.834;6.286;2022-12-18T18:04:04;100286.31;;;3.33
15144;BMP180;7672;50.834;6.286;2022-12-18T18:06:32;100278.69;;;3.30
15144;BMP180;7672;50.834;6.286;2022-12-18T18:09:08;100277.91;;;3.31
15144;BMP180;7672;50.834;6.286;2022-12-18T18:11:45;100272.91;;;3.31
15144;BMP180;7672;50.834;6.286;2022-12-18T18:14:31;100269.63;;;3.32
15144;BMP180;7672;50.834;6.286;2022-12-18T18:16:59;100273.88;;;3.35
15144;BMP180;7672;50.834;6.286;2022-12-18T18:19:31;100275.66;;;3.37
15144;BMP180;7672;50.834;6.286;2022-12-18T18:21:58;100270.00;;;3.41
15144;BMP180;7672;50.834;6.286;2022-12-18T18:24:25;100271.84;;;3.45
15144;BMP180;7672;50.834;6.286;2022-12-18T18:26:55;100264.34;;;3.45